Time;durP1;ratioP1;P1;durP2;ratioP2;P2;SDS_P1;SDS_P2;PMS_P1;PMS_P2;Temp;Humidity;BMP_temperature;BMP_pressure;BME280_temperature;BME280_humidity;BME280_pressure;Samples;Min_cycle;Max_cycle;Signal;HPM_P1;HPM_P2
2022/11/15 00:01:18;;;;;;;;;5.00;4.00;;;;;14.00;74.34;100628.69;4863148;29;45483;-65
2022/11/15 00:03:44;;;;;;;;;4.00;4.00;;;;;14.18;74.39;100658.25;4856421;29;45704;-65
2022/11/15 00:06:10;;;;;;;;;6.25;5.75;;;;;14.01;74.01;100641.16;4862259;29;45721;-66
2022/11/15 00:08:35;;;;;;;;;5.75;5.00;;;;;14.15;74.51;100661.09;4845572;29;45635;-66
2022/11/15 00:11:02;;;;;;;;;4.25;4.25;;;;;14.00;74.52;100631.38;4862152;29;45686;-66
2022/11/15 00:13:29;;;;;;;;;3.25;3.25;;;;;14.11;74.33;100657.69;4857504;29;45440;-65
2022/11/15 00:15:59;;;;;;;;;5.50;4.00;;;;;14.07;74.42;100651.59;4861123;29;46516;-65
2022/11/15 00:18:25;;;;;;;;;3.75;3.75;;;;;13.97;74.03;100619.94;4862530;29;46022;-65
2022/11/15 00:20:50;;;;;;;;;4.00;4.00;;;;;14.05;74.02;100645.44;4862873;29;45780;-65
2022/11/15 00:23:16;;;;;;;;;5.50;4.50;;;;;13.89;73.91;100614.91;4845285;29;45519;-66
2022/11/15 00:25:41;;;;;;;;;5.00;5.00;;;;;13.74;74.21;100596.88;4862635;29;46378;-66
2022/11/15 00:28:07;;;;;;;;;4.00;4.00;;;;;13.80;73.74;100607.31;4861296;29;45502;-65
2022/11/15 00:30:32;;;;;;;;;3.50;3.50;;;;;13.85;73.60;100616.03;4862442;29;45794;-65
2022/11/15 00:33:05;;;;;;;;;4.75;4.00;;;;;13.95;73.87;100640.56;4845687;29;45472;-66
2022/11/15 00:35:33;;;;;;;;;2.50;2.50;;;;;13.68;73.70;100593.56;4861156;29;45472;-66
2022/11/15 00:37:59;;;;;;;;;2.50;2.50;;;;;13.87;73.28;100627.56;4861822;29;45512;-66
2022/11/15 00:40:25;;;;;;;;;4.50;4.25;;;;;13.70;73.52;100605.06;4845471;29;45498;-65
2022/11/15 00:42:50;;;;;;;;;3.00;3.00;;;;;13.66;73.75;100592.75;4862907;29;45397;-65
2022/11/15 00:45:15;;;;;;;;;4.75;3.50;;;;;13.62;73.68;100593.84;4862440;29;46088;-65
2022/11/15 00:47:44;;;;;;;;;4.75;4.75;;;;;13.74;73.27;100618.34;4860857;29;45348;-65
2022/11/15 00:50:09;;;;;;;;;7.00;4.00;;;;;13.57;73.52;100586.97;4862913;29;45479;-65
2022/11/15 00:52:35;;;;;;;;;4.75;4.00;;;;;13.74;73.81;100618.34;4844166;29;45891;-65
2022/11/15 00:55:00;;;;;;;;;3.50;3.50;;;;;13.71;73.58;100617.56;4862354;29;46091;-65
2022/11/15 00:57:26;;;;;;;;;4.25;3.50;;;;;13.57;73.51;100593.19;4842258;29;45544;-65
2022/11/15 00:59:51;;;;;;;;;5.50;3.75;;;;;13.53;73.77;100587.09;4860699;29;46767;-65
2022/11/15 01:02:16;;;;;;;;;6.25;4.75;;;;;13.69;73.37;100613.19;4863625;29;45671;-65
2022/11/15 01:04:42;;;;;;;;;4.75;4.75;;;;;13.42;73.18;100567.97;4861982;29;45495;-65
2022/11/15 01:07:07;;;;;;;;;3.75;3.75;;;;;13.50;73.45;100589.94;4847873;29;45715;-65
2022/11/15 01:09:32;;;;;;;;;3.75;3.75;;;;;13.59;73.33;100604.72;4848980;29;45546;-65
2022/11/15 01:11:58;;;;;;;;;2.00;2.00;;;;;13.49;73.24;100590.84;4864477;29;47007;-65
2022/11/15 01:14:23;;;;;;;;;3.00;3.00;;;;;13.56;73.10;100604.84;4861255;29;45699;-65
2022/11/15 01:16:49;;;;;;;;;4.00;4.00;;;;;13.34;73.18;100573.66;4864216;29;45522;-65
2022/11/15 01:19:14;;;;;;;;;4.25;3.75;;;;;13.44;73.05;100586.66;4865487;29;45353;-66
2022/11/15 01:21:39;;;;;;;;;3.00;3.00;;;;;13.47;73.12;100591.88;4864936;29;45606;-66
2022/11/15 01:24:05;;;;;;;;;4.00;3.00;;;;;13.44;73.05;100578.63;4862689;29;45910;-66
2022/11/15 01:26:30;;;;;;;;;4.00;3.25;;;;;13.36;73.00;100570.91;4847627;29;45404;-65
2022/11/15 01:28:56;;;;;;;;;5.75;4.50;;;;;13.24;72.85;100556.25;4864307;29;45441;-65
2022/11/15 01:31:21;;;;;;;;;1.50;1.50;;;;;13.23;73.11;100562.56;4862349;29;45428;-65
2022/11/15 01:33:48;;;;;;;;;4.25;4.25;;;;;13.33;72.85;100580.00;4865190;29;45543;-66
2022/11/15 01:36:21;;;;;;;;;3.00;2.00;;;;;13.30;72.90;100579.25;4864106;29;45512;-66
2022/11/15 01:38:52;;;;;;;;;4.75;3.00;;;;;13.20;72.78;100561.81;4863349;29;45362;-66
2022/11/15 01:41:20;;;;;;;;;2.25;2.25;;;;;13.24;72.60;100574.16;4864083;29;45520;-66
2022/11/15 01:43:49;;;;;;;;;7.75;3.00;;;;;13.04;72.20;100542.91;4865032;29;45464;-66
2022/11/15 01:46:34;;;;;;;;;4.00;3.00;;;;;13.13;72.50;100561.22;4845823;29;45762;-66
2022/11/15 01:49:16;;;;;;;;;3.50;3.50;;;;;13.11;72.56;100557.75;4864402;29;45805;-66
2022/11/15 01:51:41;;;;;;;;;2.00;2.00;;;;;13.00;72.12;100549.31;4859531;29;45601;-65
2022/11/15 01:54:16;;;;;;;;;4.25;2.00;;;;;13.09;72.40;100554.28;4863827;29;45436;-65
2022/11/15 01:56:49;;;;;;;;;5.50;2.25;;;;;12.92;72.31;100526.44;4859209;29;45474;-66
2022/11/15 01:59:15;;;;;;;;;3.50;3.25;;;;;12.97;72.25;100537.81;4862295;29;45412;-65
2022/11/15 02:01:41;;;;;;;;;2.50;2.50;;;;;12.80;72.49;100510.94;4862499;29;45526;-65
2022/11/15 02:04:15;;;;;;;;;3.00;3.00;;;;;12.85;72.25;100513.41;4864334;29;45361;-65
2022/11/15 02:06:43;;;;;;;;;3.00;3.00;;;;;12.85;72.07;100519.63;4842917;29;45364;-65
2022/11/15 02:09:08;;;;;;;;;4.00;2.75;;;;;12.82;72.03;100516.22;4861496;29;45558;-65
2022/11/15 02:11:34;;;;;;;;;3.75;3.75;;;;;12.71;71.87;100497.94;4863730;29;45318;-66
2022/11/15 02:14:01;;;;;;;;;4.00;3.00;;;;;12.70;72.21;100498.91;4830949;29;48105;-65
2022/11/15 02:16:57;;;;;;;;;4.75;3.50;;;;;12.83;71.95;100517.94;4861544;29;46151;-65
2022/11/15 02:19:31;;;;;;;;;2.25;2.00;;;;;12.78;72.01;100507.47;4863772;29;45634;-66
2022/11/15 02:22:36;;;;;;;;;3.00;2.00;;;;;12.82;71.80;100517.09;4862835;29;45601;-65
2022/11/15 02:25:39;;;;;;;;;2.50;2.25;;;;;12.79;72.00;100511.88;4861940;29;45377;-65
2022/11/15 02:28:04;;;;;;;;;4.50;3.75;;;;;12.75;71.59;100507.59;4860554;29;45657;-66
2022/11/15 02:30:47;;;;;;;;;3.00;2.00;;;;;12.68;71.58;100492.72;4863596;29;45374;-65
2022/11/15 02:33:18;;;;;;;;;5.00;4.50;;;;;12.68;71.63;100493.63;4864196;29;45335;-66
2022/11/15 02:35:57;;;;;;;;;4.00;2.75;;;;;12.62;71.53;100485.00;4846704;29;46223;-65
2022/11/15 02:38:38;;;;;;;;;2.00;2.00;;;;;12.59;71.82;100481.50;4860323;29;45496;-66
2022/11/15 02:41:14;;;;;;;;;4.00;3.25;;;;;12.55;71.21;100479.91;4844228;29;46266;-65
2022/11/15 02:44:14;;;;;;;;;2.75;2.75;;;;;12.49;71.16;100474.81;4846225;29;45396;-65
2022/11/15 02:47:13;;;;;;;;;3.00;3.00;;;;;12.31;71.50;100448.88;4838787;29;47393;-65
2022/11/15 02:49:54;;;;;;;;;2.50;2.25;;;;;12.25;71.52;100449.16;4860824;29;45664;-66
2022/11/15 02:52:22;;;;;;;;;4.00;3.00;;;;;12.26;71.67;100446.38;4859042;29;45473;-65
2022/11/15 02:54:59;;;;;;;;;4.25;3.25;;;;;12.45;71.46;100472.38;4845801;29;45539;-65
2022/11/15 02:57:49;;;;;;;;;3.75;2.00;;;;;12.44;71.61;100468.81;4863744;29;46712;-65
2022/11/15 03:00:18;;;;;;;;;2.00;2.00;;;;;12.26;71.50;100435.69;4858741;29;45593;-65
2022/11/15 03:03:27;;;;;;;;;2.25;1.75;;;;;12.39;71.62;100449.41;4859573;29;46106;-65
2022/11/15 03:06:21;;;;;;;;;4.00;2.00;;;;;12.39;71.50;100452.94;4826716;29;45538;-65
2022/11/15 03:09:09;;;;;;;;;2.00;2.00;;;;;12.39;71.52;100441.38;4860314;29;46503;-66
2022/11/15 03:11:44;;;;;;;;;3.00;2.00;;;;;12.29;71.55;100435.56;4864037;29;45633;-65
2022/11/15 03:14:23;;;;;;;;;3.00;3.00;;;;;12.38;71.64;100428.94;4856942;29;45512;-65
2022/11/15 03:17:01;;;;;;;;;4.25;3.00;;;;;12.37;71.49;100437.91;4863476;29;45410;-66
2022/11/15 03:20:01;;;;;;;;;3.25;3.25;;;;;12.37;71.53;100428.06;4856808;29;45556;-65
2022/11/15 03:22:31;;;;;;;;;2.75;2.75;;;;;12.27;71.34;100412.50;4821546;29;45626;-65
2022/11/15 03:25:00;;;;;;;;;4.25;2.00;;;;;12.31;71.67;100424.78;4863178;29;45410;-65
2022/11/15 03:27:36;;;;;;;;;3.25;2.00;;;;;12.15;71.51;100401.38;4846387;29;45501;-65
2022/11/15 03:30:06;;;;;;;;;5.25;4.25;;;;;12.14;71.35;100399.63;4845933;29;46278;-65
2022/11/15 03:32:40;;;;;;;;;3.75;3.75;;;;;12.21;71.62;100417.19;4857137;29;45641;-66
2022/11/15 03:35:16;;;;;;;;;3.00;2.00;;;;;12.25;71.52;100415.22;4851389;29;45520;-66
2022/11/15 03:38:00;;;;;;;;;1.00;1.00;;;;;12.15;71.43;100398.72;4859301;29;45427;-65
2022/11/15 03:40:34;;;;;;;;;2.75;2.75;;;;;12.26;71.61;100413.41;4862380;29;46561;-65
2022/11/15 03:43:13;;;;;;;;;2.00;2.00;;;;;12.16;71.68;100397.78;4863195;29;45766;-65
2022/11/15 03:45:46;;;;;;;;;3.50;3.50;;;;;12.11;71.60;100389.09;4857090;29;45350;-65
2022/11/15 03:48:22;;;;;;;;;4.00;3.25;;;;;12.03;71.57;100376.03;4862545;29;45651;-65
2022/11/15 03:50:48;;;;;;;;;3.25;3.00;;;;;12.23;71.71;100401.06;4860363;29;45517;-65
2022/11/15 03:53:14;;;;;;;;;1.75;1.75;;;;;12.03;71.35;100373.38;4845482;29;45662;-65
2022/11/15 03:55:39;;;;;;;;;4.00;3.25;;;;;12.20;71.54;100402.03;4863076;29;45456;-65
2022/11/15 03:58:05;;;;;;;;;2.00;2.00;;;;;12.09;71.85;100385.59;4863131;29;46029;-65
2022/11/15 04:00:31;;;;;;;;;3.50;2.00;;;;;12.15;71.60;100393.34;4861812;29;45532;-65
2022/11/15 04:02:56;;;;;;;;;2.75;1.75;;;;;12.13;71.54;100376.50;4861747;29;45892;-65
2022/11/15 04:05:21;;;;;;;;;3.00;3.00;;;;;12.00;71.58;100365.47;4861604;29;45436;-65
2022/11/15 04:07:47;;;;;;;;;1.75;1.75;;;;;12.09;71.58;100382.91;4862627;29;45472;-65
2022/11/15 04:10:13;;;;;;;;;2.00;2.00;;;;;12.07;71.88;100381.25;4862976;29;45583;-65
2022/11/15 04:12:43;;;;;;;;;1.75;1.00;;;;;12.02;71.78;100376.97;4861928;29;45704;-65
2022/11/15 04:15:13;;;;;;;;;4.00;2.00;;;;;11.94;71.89;100360.38;4845760;29;45338;-65
2022/11/15 04:17:47;;;;;;;;;4.00;2.00;;;;;12.07;71.82;100375.91;4845251;29;45470;-65
2022/11/15 04:25:46;;;;;;;;;2.00;1.50;;;;;11.97;72.30;100376.31;4861656;29;45567;-65
2022/11/15 04:28:12;;;;;;;;;1.00;1.00;;;;;12.03;71.50;100378.72;4842731;29;45446;-65
2022/11/15 04:30:37;;;;;;;;;1.50;1.00;;;;;11.89;71.72;100357.00;4859525;29;46311;-65
2022/11/15 04:33:03;;;;;;;;;2.25;2.00;;;;;11.91;72.22;100365.91;4842219;29;45947;-65
2022/11/15 04:35:29;;;;;;;;;1.25;1.25;;;;;11.82;71.82;100345.72;4862853;29;45431;-65
2022/11/15 04:37:55;;;;;;;;;3.00;3.00;;;;;11.99;71.92;100369.06;4863714;29;45394;-66
2022/11/15 04:40:21;;;;;;;;;2.25;2.00;;;;;12.03;71.94;100369.84;4865257;29;45430;-65
2022/11/15 04:42:46;;;;;;;;;1.50;1.00;;;;;12.02;71.98;100368.09;4847768;29;45814;-65
2022/11/15 04:45:11;;;;;;;;;3.00;2.00;;;;;11.82;71.98;100340.38;4865912;29;45523;-66
2022/11/15 04:47:37;;;;;;;;;1.75;1.75;;;;;11.84;71.86;100342.97;4865586;29;45316;-66
2022/11/15 04:50:03;;;;;;;;;1.50;1.00;;;;;11.71;71.76;100317.72;4864964;29;47046;-65
2022/11/15 04:52:28;;;;;;;;;2.25;2.25;;;;;11.74;72.28;100315.78;4865351;29;46811;-65
2022/11/15 04:54:54;;;;;;;;;1.00;1.00;;;;;11.91;72.07;100340.91;4836287;29;45415;-65
2022/11/15 04:57:19;;;;;;;;;1.75;1.75;;;;;11.91;72.13;100335.56;4848446;29;45612;-65
2022/11/15 04:59:45;;;;;;;;;1.00;1.00;;;;;11.86;72.50;100325.06;4863714;29;47507;-65
2022/11/15 05:02:11;;;;;;;;;1.00;1.00;;;;;11.79;72.74;100321.78;4865331;29;45305;-65
2022/11/15 05:04:36;;;;;;;;;3.25;2.00;;;;;11.90;72.05;100332.03;4860772;29;45803;-65
2022/11/15 05:07:03;;;;;;;;;1.00;1.00;;;;;11.92;72.33;100326.63;4863089;29;45446;-65
2022/11/15 05:09:29;;;;;;;;;1.00;1.00;;;;;11.91;72.59;100328.47;4865329;29;45376;-65
2022/11/15 05:11:54;;;;;;;;;2.75;1.50;;;;;11.82;72.68;100312.78;4863654;29;45330;-65
2022/11/15 05:14:20;;;;;;;;;2.00;2.00;;;;;11.85;72.45;100318.84;4859808;29;45297;-65
2022/11/15 05:16:45;;;;;;;;;1.00;1.00;;;;;11.82;72.62;100320.78;4865279;29;45420;-65
2022/11/15 05:19:10;;;;;;;;;2.50;1.50;;;;;11.71;72.80;100293.66;4862944;29;45613;-65
2022/11/15 05:21:36;;;;;;;;;3.00;3.00;;;;;11.72;72.71;100301.59;4865334;29;45476;-65
2022/11/15 05:24:02;;;;;;;;;3.00;3.00;;;;;11.86;72.50;100325.06;4864207;29;45344;-65
2022/11/15 05:26:28;;;;;;;;;3.00;3.00;;;;;11.75;72.66;100306.81;4864682;29;45347;-65
2022/11/15 05:28:55;;;;;;;;;4.00;4.00;;;;;11.73;72.69;100298.00;4865402;29;46002;-65
2022/11/15 05:31:21;;;;;;;;;2.25;2.25;;;;;11.72;72.56;100296.25;4847665;29;46101;-65
2022/11/15 05:33:46;;;;;;;;;3.50;3.00;;;;;11.75;72.55;100300.63;4865408;29;45522;-65
2022/11/15 05:36:31;;;;;;;;;3.00;3.00;;;;;11.88;72.53;100325.88;4864115;29;45245;-65
2022/11/15 05:38:56;;;;;;;;;2.75;2.75;;;;;11.84;71.97;100333.19;4863749;29;45747;-65
2022/11/15 05:41:28;;;;;;;;;4.00;2.00;;;;;11.81;72.63;100322.59;4863856;29;45624;-66
2022/11/15 05:43:54;;;;;;;;;6.75;4.00;;;;;11.68;72.87;100300.03;4848226;29;45477;-65
2022/11/15 05:46:19;;;;;;;;;3.00;3.00;;;;;11.87;73.20;100334.81;4847901;29;45555;-65
2022/11/15 05:48:48;;;;;;;;;3.00;3.00;;;;;11.80;73.00;100323.53;4864679;29;46313;-66
2022/11/15 05:51:17;;;;;;;;;4.25;4.00;;;;;11.61;72.72;100288.72;4846516;29;45596;-65
2022/11/15 05:53:43;;;;;;;;;3.50;3.50;;;;;11.63;73.11;100286.00;4864638;29;45558;-65
2022/11/15 05:56:09;;;;;;;;;3.75;3.50;;;;;11.70;73.16;100302.63;4864849;29;45393;-65
2022/11/15 05:58:36;;;;;;;;;3.00;3.00;;;;;11.77;73.31;100299.59;4862779;29;46652;-65
2022/11/15 06:01:02;;;;;;;;;3.00;2.00;;;;;11.69;73.63;100291.03;4863383;29;45270;-65
2022/11/15 06:03:28;;;;;;;;;4.00;3.00;;;;;11.83;73.37;100306.50;4863869;29;45420;-66
2022/11/15 06:05:54;;;;;;;;;4.00;4.00;;;;;11.78;73.51;100287.13;4864716;29;45525;-66
2022/11/15 06:08:19;;;;;;;;;3.25;3.25;;;;;11.71;73.37;100266.91;4864316;29;46482;-66
2022/11/15 06:10:44;;;;;;;;;4.00;4.00;;;;;11.73;73.08;100267.72;4863460;29;45423;-66
2022/11/15 06:13:10;;;;;;;;;2.00;2.00;;;;;11.84;73.57;100274.34;4864666;29;45340;-66
2022/11/15 06:15:35;;;;;;;;;5.00;3.00;;;;;11.81;73.51;100268.22;4862424;29;45458;-66
2022/11/15 06:18:01;;;;;;;;;3.00;3.00;;;;;11.73;73.60;100252.56;4847706;29;47188;-65
2022/11/15 06:20:28;;;;;;;;;3.50;3.00;;;;;11.68;73.60;100246.56;4864211;29;45444;-66
2022/11/15 06:23:02;;;;;;;;;4.75;4.00;;;;;11.90;73.39;100278.53;4863118;29;45426;-66
2022/11/15 06:25:29;;;;;;;;;2.75;2.75;;;;;11.87;73.74;100255.44;4848038;29;45345;-65
2022/11/15 06:27:56;;;;;;;;;3.00;3.00;;;;;11.87;73.43;100258.13;4861875;29;47598;-66
2022/11/15 06:30:22;;;;;;;;;3.50;3.00;;;;;11.82;73.67;100241.44;4864745;29;45315;-65
2022/11/15 06:32:48;;;;;;;;;2.75;2.75;;;;;11.76;73.71;100223.00;4862217;29;45390;-65
2022/11/15 06:35:14;;;;;;;;;4.00;3.00;;;;;11.82;73.82;100227.19;4864488;29;45319;-66
2022/11/15 06:37:40;;;;;;;;;4.25;4.25;;;;;11.89;73.76;100225.09;4861962;29;48424;-65
2022/11/15 06:40:06;;;;;;;;;8.75;8.00;;;;;11.86;73.67;100224.31;4863391;29;45329;-66
2022/11/15 06:42:32;;;;;;;;;4.50;3.00;;;;;11.72;73.85;100194.66;4864422;29;45475;-65
2022/11/15 06:44:57;;;;;;;;;3.00;3.00;;;;;11.86;73.68;100204.72;4862966;29;45473;-65
2022/11/15 06:47:22;;;;;;;;;5.50;4.00;;;;;11.97;73.69;100212.28;4831696;29;46081;-66
2022/11/15 06:49:48;;;;;;;;;2.75;2.00;;;;;11.89;73.79;100196.53;4846328;29;45422;-66
2022/11/15 06:52:13;;;;;;;;;3.00;2.50;;;;;11.80;73.61;100192.50;4863664;29;45558;-65
2022/11/15 06:54:38;;;;;;;;;4.75;3.00;;;;;11.95;73.88;100216.84;4847252;29;45633;-65
2022/11/15 06:57:04;;;;;;;;;2.50;2.00;;;;;12.00;73.95;100222.84;4862708;29;45438;-65
2022/11/15 06:59:30;;;;;;;;;3.75;3.00;;;;;11.78;74.13;100182.84;4863231;29;45687;-65
2022/11/15 07:01:55;;;;;;;;;2.75;2.75;;;;;11.73;74.18;100180.38;4862923;29;45434;-65
2022/11/15 07:04:21;;;;;;;;;2.00;2.00;;;;;11.97;74.07;100206.94;4858790;29;45348;-65
2022/11/15 07:06:47;;;;;;;;;3.25;3.00;;;;;11.94;74.11;100199.91;4863428;29;45909;-65
2022/11/15 07:09:13;;;;;;;;;5.00;3.00;;;;;11.82;74.27;100163.88;4844885;29;47079;-65
2022/11/15 07:11:38;;;;;;;;;3.00;3.00;;;;;11.75;74.51;100154.41;4861491;29;45471;-65
2022/11/15 07:14:03;;;;;;;;;3.00;3.00;;;;;11.89;73.97;100167.13;4856407;29;45678;-65
2022/11/15 07:16:29;;;;;;;;;4.00;3.00;;;;;11.94;74.39;100175.84;4863503;29;46354;-66
2022/11/15 07:18:54;;;;;;;;;3.50;3.50;;;;;11.89;74.61;100171.63;4863000;29;45448;-67
2022/11/15 07:21:20;;;;;;;;;3.00;3.00;;;;;11.79;74.50;100164.00;4858432;29;45488;-67
2022/11/15 07:23:45;;;;;;;;;4.00;3.00;;;;;11.87;74.56;100179.72;4850155;29;45541;-67
2022/11/15 07:26:10;;;;;;;;;4.00;2.00;;;;;11.85;74.67;100179.78;4864405;29;45454;-66
2022/11/15 07:28:36;;;;;;;;;3.75;2.00;;;;;11.87;74.71;100182.38;4863372;29;45472;-68
2022/11/15 07:31:03;;;;;;;;;2.50;2.50;;;;;11.73;74.77;100163.44;4863800;29;45333;-68
2022/11/15 07:33:28;;;;;;;;;3.00;2.00;;;;;11.93;75.03;100192.84;4863539;29;45458;-68
2022/11/15 07:35:53;;;;;;;;;2.00;2.00;;;;;11.84;75.01;100169.16;4863955;29;59126;-68
2022/11/15 07:38:19;;;;;;;;;3.00;2.00;;;;;11.92;75.12;100191.09;4862446;29;47896;-66
2022/11/15 07:40:45;;;;;;;;;4.25;3.00;;;;;11.96;74.97;100190.03;4863418;29;45543;-67
2022/11/15 07:43:10;;;;;;;;;5.00;4.00;;;;;11.97;75.16;100180.19;4860179;29;45658;-68
2022/11/15 07:45:44;;;;;;;;;4.25;3.50;;;;;12.00;74.98;100177.38;4860788;29;46284;-67
2022/11/15 07:48:09;;;;;;;;;3.00;3.00;;;;;11.99;75.26;100172.94;4863406;29;45472;-67
2022/11/15 07:50:35;;;;;;;;;2.25;2.25;;;;;11.97;75.12;100161.47;4862005;29;45423;-67
2022/11/15 07:53:00;;;;;;;;;4.00;3.00;;;;;11.98;75.18;100165.88;4863223;29;45316;-67
2022/11/15 07:55:28;;;;;;;;;4.50;3.00;;;;;12.00;75.27;100159.50;4846725;29;66340;-67
2022/11/15 07:57:59;;;;;;;;;5.25;3.50;;;;;12.02;75.44;100154.94;4864866;29;45604;-67
2022/11/15 08:00:25;;;;;;;;;3.00;2.00;;;;;12.06;75.52;100150.31;4847006;29;45569;-67
2022/11/15 08:02:50;;;;;;;;;6.00;3.75;;;;;12.07;75.29;100146.69;4863884;29;45380;-68
2022/11/15 08:05:16;;;;;;;;;4.00;3.00;;;;;12.05;75.57;100132.53;4861583;29;45325;-66
2022/11/15 08:07:41;;;;;;;;;3.00;1.00;;;;;12.09;75.52;100138.59;4858845;29;45468;-67
2022/11/15 08:10:07;;;;;;;;;3.00;3.00;;;;;12.10;75.40;100135.84;4842299;29;45787;-67
2022/11/15 08:12:33;;;;;;;;;2.50;2.00;;;;;12.08;75.45;100134.19;4858268;29;45422;-67
2022/11/15 08:14:59;;;;;;;;;3.00;2.25;;;;;12.11;75.38;100136.72;4836977;29;45436;-67
2022/11/15 08:17:25;;;;;;;;;4.50;4.00;;;;;12.15;75.51;100133.81;4857522;29;45448;-67
2022/11/15 08:19:50;;;;;;;;;6.00;6.00;;;;;12.18;75.44;100138.19;4862494;29;45501;-67
2022/11/15 08:22:16;;;;;;;;;6.75;4.00;;;;;12.21;75.60;100135.31;4857372;29;45525;-67
2022/11/15 08:24:41;;;;;;;;;3.00;3.00;;;;;12.25;75.57;100133.38;4857929;29;45871;-67
2022/11/15 08:27:14;;;;;;;;;4.00;4.00;;;;;12.25;75.39;100139.59;4861434;29;45486;-67
2022/11/15 08:29:44;;;;;;;;;4.50;3.50;;;;;12.29;75.62;100130.47;4861678;29;45518;-67
2022/11/15 08:32:10;;;;;;;;;6.00;2.00;;;;;12.27;75.36;100120.78;4857163;29;45519;-67
2022/11/15 08:34:36;;;;;;;;;3.25;1.50;;;;;12.27;75.20;100115.44;4860256;29;45981;-67
2022/11/15 08:37:02;;;;;;;;;5.75;3.00;;;;;12.32;75.12;100119.63;4862026;29;45260;-67
2022/11/15 08:39:27;;;;;;;;;2.25;1.25;;;;;12.28;75.35;100118.03;4861522;29;45525;-67
2022/11/15 08:41:53;;;;;;;;;2.00;2.00;;;;;12.26;75.57;100113.69;4844314;29;45590;-67
2022/11/15 08:44:19;;;;;;;;;2.50;2.50;;;;;12.35;75.41;100110.59;4861781;29;45566;-67
2022/11/15 08:46:47;;;;;;;;;3.00;3.00;;;;;12.31;75.37;100101.84;4838809;29;45341;-67
2022/11/15 08:49:13;;;;;;;;;3.00;2.00;;;;;12.38;75.36;100110.44;4860390;29;45583;-67
2022/11/15 08:51:38;;;;;;;;;2.25;2.25;;;;;12.42;75.40;100104.81;4834404;29;45821;-67
2022/11/15 08:54:04;;;;;;;;;4.25;2.75;;;;;12.47;75.27;100101.06;4859214;29;45363;-67
2022/11/15 08:56:29;;;;;;;;;4.00;3.00;;;;;12.46;75.37;100091.28;4857711;29;45379;-67
2022/11/15 08:58:55;;;;;;;;;1.75;1.75;;;;;12.53;75.53;100087.34;4859951;29;45563;-67
2022/11/15 09:01:20;;;;;;;;;3.00;3.00;;;;;12.50;75.38;100066.97;4858925;29;45500;-67
2022/11/15 09:03:46;;;;;;;;;3.75;3.75;;;;;12.54;75.36;100067.69;4857883;29;46169;-68
2022/11/15 09:06:11;;;;;;;;;5.00;3.00;;;;;12.57;75.35;100064.84;4862831;29;45898;-67
2022/11/15 09:08:37;;;;;;;;;2.00;2.00;;;;;12.58;75.21;100059.41;4842857;29;45286;-68
2022/11/15 09:11:08;;;;;;;;;2.00;2.00;;;;;12.67;75.38;100067.91;4841318;29;45549;-67
2022/11/15 09:13:33;;;;;;;;;3.75;3.00;;;;;12.67;75.01;100065.25;4837276;29;46182;-68
2022/11/15 09:16:00;;;;;;;;;1.00;1.00;;;;;12.69;75.01;100069.56;4861147;29;45571;-67
2022/11/15 09:18:27;;;;;;;;;2.25;2.25;;;;;12.70;75.11;100062.41;4859726;29;45586;-67
2022/11/15 09:20:58;;;;;;;;;1.00;1.00;;;;;12.74;75.02;100061.28;4861779;29;45571;-67
2022/11/15 09:23:24;;;;;;;;;2.50;2.50;;;;;12.78;74.98;100068.22;4861501;29;45684;-67
2022/11/15 09:25:50;;;;;;;;;4.00;3.00;;;;;12.73;74.89;100056.88;4847000;29;45742;-67
2022/11/15 09:28:15;;;;;;;;;1.00;1.00;;;;;12.78;74.94;100063.72;4862442;29;45738;-67
2022/11/15 09:30:41;;;;;;;;;1.75;1.50;;;;;12.81;74.60;100068.03;4847005;29;45587;-67
2022/11/15 09:33:11;;;;;;;;;2.50;2.50;;;;;12.90;74.47;100067.56;4849538;29;47401;-67
2022/11/15 09:35:36;;;;;;;;;3.50;2.00;;;;;12.93;74.38;100069.22;4863138;29;45751;-67
2022/11/15 09:38:02;;;;;;;;;3.50;2.50;;;;;12.96;74.74;100079.78;4862922;29;45524;-68
2022/11/15 09:40:30;;;;;;;;;3.25;2.50;;;;;12.92;74.45;100062.13;4862968;29;45720;-68
2022/11/15 09:43:16;;;;;;;;;3.00;3.00;;;;;12.97;74.48;100074.34;4863951;29;45630;-68
2022/11/15 09:46:00;;;;;;;;;2.00;2.00;;;;;12.94;74.47;100063.78;4836219;29;46320;-67
2022/11/15 09:48:52;;;;;;;;;2.75;2.00;;;;;13.01;74.56;100068.81;4863861;29;45257;-68
2022/11/15 09:51:26;;;;;;;;;2.50;2.50;;;;;12.97;74.76;100060.09;4843757;29;45553;-67
2022/11/15 09:54:00;;;;;;;;;3.00;2.00;;;;;13.01;74.79;100066.13;4856790;29;47062;-67
2022/11/15 09:56:30;;;;;;;;;2.00;2.00;;;;;13.02;74.96;100066.06;4844842;29;47006;-70
2022/11/15 09:59:01;;;;;;;;;2.50;2.50;;;;;13.06;74.87;100077.47;4864430;29;45494;-67
2022/11/15 10:01:48;;;;;;;;;2.75;2.25;;;;;13.08;75.17;100071.09;4863294;29;45575;-67
2022/11/15 10:04:14;;;;;;;;;2.00;2.00;;;;;13.10;75.22;100054.94;4858525;29;45542;-68
2022/11/15 10:06:53;;;;;;;;;2.00;2.00;;;;;13.11;75.37;100046.81;4859611;29;45528;-68
2022/11/15 10:09:29;;;;;;;;;2.00;2.00;;;;;13.10;75.38;100044.22;4859575;29;45466;-67
2022/11/15 10:11:54;;;;;;;;;1.00;1.00;;;;;13.13;75.73;100041.34;4860732;29;45596;-67
2022/11/15 10:14:23;;;;;;;;;3.00;3.00;;;;;13.12;75.69;100028.91;4863716;29;45277;-68
2022/11/15 10:16:58;;;;;;;;;2.50;2.50;;;;;13.20;75.86;100034.72;4867380;29;45552;-68
2022/11/15 10:19:32;;;;;;;;;3.25;2.25;;;;;13.23;75.86;100026.53;4863927;29;45512;-68
2022/11/15 10:22:04;;;;;;;;;4.00;3.00;;;;;13.23;76.07;100013.13;4853295;29;45492;-68
2022/11/15 10:24:35;;;;;;;;;3.75;2.00;;;;;13.11;76.19;99982.53;4864769;29;47216;-67
2022/11/15 10:27:00;;;;;;;;;4.25;4.25;;;;;13.10;76.16;99972.72;4864125;29;45393;-68
2022/11/15 10:29:26;;;;;;;;;1.75;1.75;;;;;13.28;76.43;99997.66;4865765;29;45448;-67
2022/11/15 10:31:51;;;;;;;;;3.00;3.00;;;;;13.24;76.51;99998.75;4862222;29;45698;-67
2022/11/15 10:34:20;;;;;;;;;5.50;5.50;;;;;13.27;76.68;99998.59;4842290;29;47369;-67
2022/11/15 10:36:56;;;;;;;;;4.00;4.00;;;;;13.35;76.58;99995.53;4859405;29;45691;-68
2022/11/15 10:39:22;;;;;;;;;3.00;2.00;;;;;13.37;76.55;99990.09;4844329;29;45484;-67
2022/11/15 10:41:47;;;;;;;;;5.50;4.50;;;;;13.39;76.87;99982.81;4846768;29;45521;-67
2022/11/15 10:44:28;;;;;;;;;5.00;3.25;;;;;13.34;76.57;99975.88;4864190;29;45543;-67
2022/11/15 10:47:03;;;;;;;;;2.00;2.00;;;;;13.38;76.99;99973.03;4863460;29;45460;-67
2022/11/15 10:49:30;;;;;;;;;1.00;1.00;;;;;13.39;76.86;99972.09;4865294;29;45399;-68
2022/11/15 10:51:57;;;;;;;;;3.00;3.00;;;;;13.40;76.84;99965.75;4861980;29;45646;-66
2022/11/15 10:54:28;;;;;;;;;1.75;1.50;;;;;13.39;77.06;99956.88;4864614;29;46820;-68
2022/11/15 10:56:57;;;;;;;;;6.00;4.25;;;;;13.32;77.16;99939.41;4864976;29;45751;-68
2022/11/15 10:59:29;;;;;;;;;4.50;3.75;;;;;13.37;77.02;99953.41;4862667;29;45686;-68
2022/11/15 11:01:54;;;;;;;;;5.50;4.50;;;;;13.35;77.45;99941.94;4864160;29;45258;-67
2022/11/15 11:04:20;;;;;;;;;3.00;3.00;;;;;13.36;77.37;99937.41;4862890;29;46340;-68
2022/11/15 11:06:50;;;;;;;;;3.00;2.75;;;;;13.36;77.69;99935.59;4862318;29;45388;-67
2022/11/15 11:09:38;;;;;;;;;4.00;3.75;;;;;13.37;77.84;99933.78;4857056;29;45544;-68
2022/11/15 11:12:06;;;;;;;;;4.00;4.00;;;;;13.34;77.58;99916.06;4859291;29;45512;-68
2022/11/15 11:14:33;;;;;;;;;4.50;2.25;;;;;13.32;77.77;99912.63;4855945;29;45634;-66
2022/11/15 11:17:17;;;;;;;;;2.25;2.00;;;;;13.37;78.09;99921.25;4858489;29;45486;-67
2022/11/15 11:20:10;;;;;;;;;5.50;4.00;;;;;13.40;78.06;99917.50;4854197;29;45652;-70
2022/11/15 11:23:13;;;;;;;;;5.00;4.00;;;;;13.39;78.03;99913.97;4857111;29;45639;-68
2022/11/15 11:26:10;;;;;;;;;5.25;3.25;;;;;13.40;78.17;99905.00;4861442;29;45933;-67
2022/11/15 11:28:55;;;;;;;;;3.25;3.25;;;;;13.40;77.89;99901.44;4817897;29;46412;-67
2022/11/15 11:31:43;;;;;;;;;4.00;4.00;;;;;13.37;78.06;99904.31;4840363;29;45884;-67
2022/11/15 11:34:11;;;;;;;;;4.25;4.25;;;;;13.39;78.40;99892.53;4856975;29;45474;-67
2022/11/15 11:36:40;;;;;;;;;7.00;5.25;;;;;13.39;78.29;99894.34;4862668;29;46652;-69
2022/11/15 11:39:30;;;;;;;;;4.00;4.00;;;;;13.39;78.54;99894.34;4840665;29;45648;-67
2022/11/15 11:42:03;;;;;;;;;5.00;5.00;;;;;13.40;78.60;99888.03;4857744;29;45750;-67
2022/11/15 11:44:33;;;;;;;;;3.00;3.00;;;;;13.41;78.74;99887.09;4857647;29;47102;-67